Time;durP1;ratioP1;P1;durP2;ratioP2;P2;SDS_P1;SDS_P2;PMS_P1;PMS_P2;Temp;Humidity;BMP_temperature;BMP_pressure;BME280_temperature;BME280_humidity;BME280_pressure;Samples;Min_cycle;Max_cycle;Signal;HPM_P1;HPM_P2
2022/07/15 00:00:08;;;;;;;6.55;2.00;;;25.10;91.50;;;;;;4992289;28;20049;-67
2022/07/15 00:02:36;;;;;;;3.40;1.98;;;25.10;91.50;;;;;;5009720;28;20056;-68
2022/07/15 00:05:06;;;;;;;3.10;2.00;;;25.10;91.60;;;;;;4994167;28;20141;-67
2022/07/15 00:07:35;;;;;;;8.38;2.22;;;25.10;91.80;;;;;;4993065;28;20104;-68
2022/07/15 00:10:16;;;;;;;4.90;1.88;;;25.10;91.80;;;;;;5009448;28;20104;-70
2022/07/15 00:12:52;;;;;;;3.53;1.70;;;25.10;91.90;;;;;;5009983;28;20045;-67
2022/07/15 00:15:22;;;;;;;5.07;1.90;;;25.10;92.00;;;;;;4993728;28;20075;-67
2022/07/15 00:17:50;;;;;;;3.15;1.77;;;25.10;92.00;;;;;;4977580;28;20064;-69
2022/07/15 00:20:19;;;;;;;4.65;2.03;;;25.10;92.00;;;;;;5009267;28;20091;-67
2022/07/15 00:22:48;;;;;;;3.15;2.15;;;25.00;92.00;;;;;;5009469;28;20049;-70
2022/07/15 00:25:16;;;;;;;3.05;1.60;;;25.00;92.20;;;;;;5009366;28;20042;-68
2022/07/15 00:27:54;;;;;;;3.20;1.90;;;25.00;92.30;;;;;;5009452;28;20046;-70
2022/07/15 00:30:23;;;;;;;4.15;1.80;;;25.00;92.30;;;;;;5009545;28;20058;-69
2022/07/15 00:32:51;;;;;;;3.63;2.05;;;25.00;92.50;;;;;;5009298;28;20049;-68
2022/07/15 00:35:19;;;;;;;4.97;2.17;;;25.00;92.60;;;;;;4993255;28;20041;-67
2022/07/15 00:37:47;;;;;;;4.20;1.88;;;24.90;92.70;;;;;;5025819;28;20042;-67
2022/07/15 00:40:14;;;;;;;3.92;2.15;;;24.90;92.80;;;;;;4976437;28;20042;-68
2022/07/15 00:42:45;;;;;;;2.67;1.88;;;24.90;92.90;;;;;;5010502;28;20042;-67
2022/07/15 00:45:15;;;;;;;3.95;2.17;;;24.90;93.00;;;;;;5025313;28;20069;-67
2022/07/15 00:47:48;;;;;;;4.43;2.63;;;24.90;93.10;;;;;;4977087;28;20140;-68
2022/07/15 00:50:17;;;;;;;4.70;2.08;;;24.90;93.20;;;;;;5009464;28;20108;-68
2022/07/15 00:52:49;;;;;;;3.78;2.33;;;24.90;93.30;;;;;;4993503;28;20108;-67
2022/07/15 00:55:18;;;;;;;6.75;2.03;;;24.90;93.50;;;;;;4992855;28;20046;-67
2022/07/15 00:57:47;;;;;;;5.10;2.67;;;24.80;93.50;;;;;;5009612;28;20582;-67
2022/07/15 01:00:16;;;;;;;3.15;2.20;;;24.80;93.60;;;;;;4976682;28;20060;-69
2022/07/15 01:02:50;;;;;;;4.65;2.25;;;24.80;93.70;;;;;;5008546;28;20042;-67
2022/07/15 01:05:19;;;;;;;3.25;2.10;;;24.80;94.00;;;;;;4992872;28;20447;-68
2022/07/15 01:07:51;;;;;;;4.65;2.13;;;24.80;93.90;;;;;;5009070;28;20125;-74
2022/07/15 01:10:21;;;;;;;6.65;1.80;;;24.80;94.00;;;;;;4994024;28;20049;-68
2022/07/15 01:12:50;;;;;;;3.25;1.80;;;24.80;94.00;;;;;;5013463;28;20500;-69
2022/07/15 01:15:25;;;;;;;5.88;1.85;;;24.80;94.10;;;;;;4998166;28;20073;-67
2022/07/15 01:17:53;;;;;;;2.90;2.13;;;24.80;94.20;;;;;;5005452;28;20038;-69
2022/07/15 01:20:22;;;;;;;4.22;2.47;;;24.80;94.10;;;;;;5028807;28;20096;-67
2022/07/15 01:22:56;;;;;;;3.60;2.08;;;24.70;94.00;;;;;;5029040;28;20834;-69
2022/07/15 01:25:30;;;;;;;7.03;2.42;;;24.70;94.10;;;;;;4997755;28;20511;-75
2022/07/15 01:27:58;;;;;;;5.65;2.00;;;24.70;94.20;;;;;;4996625;28;20057;-68
2022/07/15 01:30:27;;;;;;;8.57;2.30;;;24.70;94.30;;;;;;5012278;28;20073;-67
2022/07/15 01:32:55;;;;;;;4.90;2.17;;;24.70;94.40;;;;;;5012422;28;20053;-67
2022/07/15 01:35:23;;;;;;;6.30;2.45;;;24.60;94.50;;;;;;5029283;28;20048;-67
2022/07/15 01:37:51;;;;;;;3.28;2.20;;;24.60;94.60;;;;;;5011950;28;20049;-69
2022/07/15 01:40:18;;;;;;;3.72;2.15;;;24.60;94.70;;;;;;5028302;28;20534;-69
2022/07/15 01:42:47;;;;;;;6.63;2.40;;;24.50;94.90;;;;;;5012481;28;20046;-67
2022/07/15 01:45:16;;;;;;;4.70;2.15;;;24.50;95.00;;;;;;5012900;28;20137;-68
2022/07/15 01:47:48;;;;;;;2.72;2.20;;;24.50;95.00;;;;;;4996274;28;20411;-69
2022/07/15 01:50:37;;;;;;;6.40;2.25;;;24.40;95.10;;;;;;4996192;28;20049;-67
2022/07/15 01:53:11;;;;;;;12.43;2.95;;;24.40;95.20;;;;;;5012036;28;20144;-68
2022/07/15 01:55:40;;;;;;;5.03;2.63;;;24.40;95.30;;;;;;4995758;28;20042;-69
2022/07/15 01:58:08;;;;;;;3.92;2.65;;;24.40;95.30;;;;;;5028457;28;20630;-67
2022/07/15 02:00:37;;;;;;;4.25;2.95;;;24.40;95.40;;;;;;4995257;28;20054;-68
2022/07/15 02:03:07;;;;;;;5.30;2.80;;;24.40;95.50;;;;;;4994905;28;20500;-71
2022/07/15 02:05:36;;;;;;;8.80;3.35;;;24.40;95.50;;;;;;5011830;28;20046;-67
2022/07/15 02:08:03;;;;;;;8.10;3.17;;;24.30;95.60;;;;;;5011793;28;20081;-71
2022/07/15 02:10:42;;;;;;;5.22;3.50;;;24.30;95.70;;;;;;4995004;28;20154;-69
2022/07/15 02:13:16;;;;;;;6.47;3.20;;;24.30;95.80;;;;;;5029881;28;20084;-67
2022/07/15 02:15:49;;;;;;;6.70;3.30;;;24.30;95.90;;;;;;5031184;28;20045;-67
2022/07/15 02:18:17;;;;;;;6.05;3.20;;;24.30;96.00;;;;;;5031226;28;20391;-69
2022/07/15 02:20:46;;;;;;;5.55;2.35;;;24.30;96.10;;;;;;5031564;28;20083;-69
2022/07/15 02:23:14;;;;;;;4.75;3.00;;;24.30;96.20;;;;;;5030661;28;20076;-67
2022/07/15 02:25:41;;;;;;;8.00;3.40;;;24.30;96.30;;;;;;5047367;28;20049;-71
2022/07/15 02:28:09;;;;;;;7.07;3.28;;;24.30;96.30;;;;;;5031087;28;20132;-68
2022/07/15 02:30:39;;;;;;;5.32;2.92;;;24.40;96.40;;;;;;5014536;28;20054;-67
2022/07/15 02:33:07;;;;;;;6.78;2.92;;;24.40;96.40;;;;;;5031378;28;20053;-69
2022/07/15 02:35:37;;;;;;;5.93;3.53;;;24.40;96.50;;;;;;5014649;28;20141;-67
2022/07/15 02:38:06;;;;;;;4.13;3.17;;;24.30;96.50;;;;;;5014162;28;20172;-68
2022/07/15 02:40:33;;;;;;;4.63;3.08;;;24.30;96.50;;;;;;5030538;28;20049;-67
2022/07/15 02:43:03;;;;;;;5.60;3.65;;;24.30;96.50;;;;;;5014687;28;20049;-69
2022/07/15 02:45:35;;;;;;;7.05;2.90;;;24.20;96.50;;;;;;5030798;28;20399;-70
2022/07/15 02:48:06;;;;;;;4.18;2.95;;;24.20;96.60;;;;;;5030860;28;20033;-71
2022/07/15 02:50:38;;;;;;;5.65;3.20;;;24.20;96.60;;;;;;5031399;28;20507;-68
2022/07/15 02:53:05;;;;;;;4.03;2.70;;;24.10;96.60;;;;;;5047400;28;20049;-69
2022/07/15 02:55:37;;;;;;;5.75;3.33;;;24.10;96.60;;;;;;5015255;28;20045;-71
2022/07/15 02:58:05;;;;;;;5.18;3.53;;;24.10;96.60;;;;;;5014745;28;20404;-68
2022/07/15 03:00:33;;;;;;;7.70;3.90;;;24.10;96.60;;;;;;5011267;28;20641;-68
2022/07/15 03:03:03;;;;;;;5.60;3.55;;;24.10;96.60;;;;;;5015550;28;20432;-67
2022/07/15 03:05:34;;;;;;;5.70;3.67;;;24.10;96.60;;;;;;4998608;28;20566;-68
2022/07/15 03:08:02;;;;;;;4.50;3.33;;;24.10;96.70;;;;;;5012439;28;20045;-69
2022/07/15 03:10:30;;;;;;;5.07;2.95;;;24.10;96.70;;;;;;5014028;28;20075;-70
2022/07/15 03:12:58;;;;;;;5.40;3.90;;;24.00;96.60;;;;;;5030617;28;20057;-71
2022/07/15 03:15:26;;;;;;;6.32;3.47;;;24.00;96.60;;;;;;5014132;28;20103;-69
2022/07/15 03:17:54;;;;;;;5.72;3.10;;;24.00;96.50;;;;;;5030229;28;20121;-67
2022/07/15 03:20:22;;;;;;;8.27;2.80;;;24.00;96.50;;;;;;5030659;28;20073;-68
2022/07/15 03:22:50;;;;;;;4.55;2.70;;;24.00;96.50;;;;;;5013419;28;20052;-67
2022/07/15 03:25:18;;;;;;;6.78;2.80;;;24.00;96.40;;;;;;5013854;28;20049;-69
2022/07/15 03:27:45;;;;;;;7.28;3.03;;;24.00;96.30;;;;;;5046892;28;20044;-67
2022/07/15 03:30:14;;;;;;;3.80;2.67;;;24.00;96.30;;;;;;5030154;28;20518;-68
2022/07/15 03:32:42;;;;;;;5.57;3.17;;;24.00;96.30;;;;;;5013585;28;20503;-67
2022/07/15 03:35:10;;;;;;;4.00;2.30;;;24.00;96.30;;;;;;5030049;28;20084;-71
2022/07/15 03:37:39;;;;;;;5.15;2.90;;;24.00;96.40;;;;;;5030364;28;20499;-68
2022/07/15 03:40:07;;;;;;;4.57;2.60;;;24.00;96.20;;;;;;5029834;28;20578;-67
2022/07/15 03:42:38;;;;;;;3.85;2.67;;;24.00;96.10;;;;;;5013921;28;20132;-67
2022/07/15 03:45:06;;;;;;;4.22;2.72;;;24.00;96.00;;;;;;5030249;28;20041;-67
2022/07/15 03:47:34;;;;;;;5.88;2.70;;;24.10;96.00;;;;;;5029802;28;20112;-67
2022/07/15 03:50:06;;;;;;;4.35;2.88;;;24.10;95.80;;;;;;5029532;28;20041;-67
2022/07/15 03:52:36;;;;;;;7.32;3.72;;;24.20;95.60;;;;;;5030082;28;20103;-67
2022/07/15 03:55:06;;;;;;;3.78;2.58;;;24.20;95.40;;;;;;5029881;28;20049;-68
2022/07/15 03:57:33;;;;;;;4.70;2.63;;;24.20;95.20;;;;;;5036633;28;20827;-67
2022/07/15 04:00:01;;;;;;;5.00;2.30;;;24.30;95.10;;;;;;5009776;28;20112;-69
2022/07/15 04:02:29;;;;;;;5.22;2.88;;;24.30;94.90;;;;;;5009931;28;20072;-69
2022/07/15 04:04:58;;;;;;;3.42;2.47;;;24.30;94.70;;;;;;5009371;28;20046;-67
2022/07/15 04:07:25;;;;;;;5.35;2.50;;;24.40;94.60;;;;;;5009513;28;20041;-68
2022/07/15 04:09:54;;;;;;;3.67;2.30;;;24.50;94.50;;;;;;4992993;28;20472;-68
2022/07/15 04:12:22;;;;;;;5.05;2.53;;;24.50;94.20;;;;;;5009921;28;20049;-68
2022/07/15 04:14:50;;;;;;;4.00;2.28;;;24.60;94.10;;;;;;4992616;28;20054;-68
2022/07/15 04:17:17;;;;;;;4.97;2.60;;;24.70;94.00;;;;;;5009960;28;20539;-70
2022/07/15 04:19:46;;;;;;;4.07;2.35;;;24.80;93.80;;;;;;5026005;28;20042;-67
2022/07/15 04:22:13;;;;;;;5.82;2.38;;;24.80;93.50;;;;;;5025714;28;20049;-67
2022/07/15 04:24:50;;;;;;;2.92;2.53;;;25.00;93.50;;;;;;5009544;28;20050;-67
2022/07/15 04:27:18;;;;;;;4.80;2.45;;;25.10;93.20;;;;;;5009532;28;20050;-67
2022/07/15 04:29:46;;;;;;;2.90;2.22;;;25.10;93.10;;;;;;4993426;28;20607;-67
2022/07/15 04:32:15;;;;;;;4.93;3.03;;;25.30;93.00;;;;;;5009242;28;20057;-67
2022/07/15 04:34:47;;;;;;;3.47;2.20;;;25.40;92.80;;;;;;5010119;28;20052;-67
2022/07/15 04:37:17;;;;;;;3.72;2.10;;;25.50;92.60;;;;;;5011220;28;20669;-67
2022/07/15 04:39:50;;;;;;;4.50;2.08;;;25.60;92.40;;;;;;4976932;28;20120;-67
2022/07/15 04:42:17;;;;;;;3.70;2.63;;;25.70;92.30;;;;;;5009386;28;20049;-67
2022/07/15 04:44:47;;;;;;;3.60;2.13;;;25.90;92.10;;;;;;5008645;28;20381;-68
2022/07/15 04:47:17;;;;;;;3.60;2.28;;;26.00;92.00;;;;;;5010287;28;20120;-69
2022/07/15 04:52:43;;;;;;;3.97;2.25;;;26.20;91.60;;;;;;5029032;28;20523;-69
2022/07/15 04:55:11;;;;;;;4.18;2.55;;;26.40;91.40;;;;;;5029049;28;20052;-68
2022/07/15 04:57:39;;;;;;;3.53;2.20;;;26.50;91.20;;;;;;5029178;28;20048;-67
2022/07/15 05:00:09;;;;;;;4.97;2.22;;;26.60;91.10;;;;;;5028413;28;20547;-67
2022/07/15 05:02:38;;;;;;;3.25;2.50;;;26.70;90.90;;;;;;5012590;28;20108;-67
2022/07/15 05:05:07;;;;;;;5.78;3.00;;;26.80;90.70;;;;;;5030107;28;20077;-69
2022/07/15 05:07:35;;;;;;;3.67;2.60;;;26.90;90.50;;;;;;5045008;28;20084;-67
2022/07/15 05:10:08;;;;;;;4.45;2.22;;;27.00;90.30;;;;;;5028307;28;20041;-71
2022/07/15 05:12:39;;;;;;;3.83;2.08;;;27.10;90.20;;;;;;5028735;28;20044;-67
2022/07/15 05:15:07;;;;;;;3.72;2.13;;;27.20;90.10;;;;;;5028503;28;20107;-68
2022/07/15 05:17:35;;;;;;;4.03;2.50;;;27.30;89.80;;;;;;5045059;28;20052;-67
2022/07/15 05:20:03;;;;;;;4.90;2.70;;;27.40;89.70;;;;;;5028811;28;20124;-67
2022/07/15 05:22:31;;;;;;;6.07;2.33;;;27.50;89.40;;;;;;5028688;28;20041;-68
2022/07/15 05:24:59;;;;;;;3.55;2.10;;;27.60;89.10;;;;;;5028594;28;20530;-68
2022/07/15 05:27:27;;;;;;;3.65;2.33;;;27.70;89.00;;;;;;5012376;28;20144;-69
2022/07/15 05:29:55;;;;;;;6.47;2.58;;;27.80;88.50;;;;;;5011743;28;20526;-67
2022/07/15 05:32:23;;;;;;;8.82;2.50;;;27.80;88.30;;;;;;5011356;28;20049;-66
2022/07/15 05:34:51;;;;;;;4.47;2.60;;;27.90;88.10;;;;;;5028458;28;20041;-69
2022/07/15 05:37:19;;;;;;;4.40;2.47;;;28.10;87.90;;;;;;5028887;28;20046;-71
2022/07/15 05:39:56;;;;;;;5.28;3.45;;;28.20;87.60;;;;;;5028441;28;20388;-67
2022/07/15 05:42:33;;;;;;;4.55;2.80;;;28.30;87.20;;;;;;5028013;28;20127;-69
2022/07/15 05:45:02;;;;;;;5.75;3.20;;;28.40;86.60;;;;;;5026569;28;20049;-68
2022/07/15 05:47:29;;;;;;;6.75;3.40;;;28.60;86.20;;;;;;5028305;28;20053;-67
2022/07/15 05:49:57;;;;;;;6.55;2.88;;;28.70;85.80;;;;;;5012429;28;20045;-67
2022/07/15 05:52:27;;;;;;;7.70;4.13;;;28.70;85.30;;;;;;5027808;28;20068;-67
2022/07/15 05:54:56;;;;;;;7.35;4.43;;;28.90;85.20;;;;;;5011875;28;20081;-67
2022/07/15 05:57:24;;;;;;;6.43;2.70;;;28.90;84.60;;;;;;5014846;28;20112;-66
2022/07/15 05:59:51;;;;;;;6.55;3.05;;;29.10;84.50;;;;;;5032589;28;20136;-67
2022/07/15 06:02:19;;;;;;;7.22;2.83;;;29.20;84.30;;;;;;5031801;28;20037;-69
2022/07/15 06:04:47;;;;;;;4.88;2.45;;;29.30;83.80;;;;;;5031917;28;20069;-66
2022/07/15 06:07:15;;;;;;;3.60;2.10;;;29.40;83.30;;;;;;5048966;28;20128;-71
2022/07/15 06:09:42;;;;;;;3.90;2.13;;;29.50;82.90;;;;;;5031876;28;20389;-70
2022/07/15 06:12:10;;;;;;;4.15;2.60;;;29.60;82.70;;;;;;5031000;28;20042;-68
2022/07/15 06:14:38;;;;;;;5.18;2.40;;;29.60;82.50;;;;;;5015696;28;20052;-72
2022/07/15 06:17:09;;;;;;;3.20;2.38;;;29.80;82.30;;;;;;5031874;28;20132;-67
2022/07/15 06:19:37;;;;;;;4.80;2.33;;;29.90;82.10;;;;;;5031822;28;20148;-69
2022/07/15 06:22:06;;;;;;;4.15;2.47;;;30.00;81.20;;;;;;5015661;28;20037;-68
2022/07/15 06:24:34;;;;;;;5.40;2.35;;;30.10;80.30;;;;;;5030885;28;20048;-67
2022/07/15 06:27:01;;;;;;;3.47;2.50;;;30.10;80.00;;;;;;5015198;28;20531;-67
2022/07/15 06:29:29;;;;;;;5.78;2.83;;;30.30;80.10;;;;;;5033026;28;20515;-68
2022/07/15 06:31:57;;;;;;;8.48;3.30;;;30.30;79.70;;;;;;5030270;28;20454;-69
2022/07/15 06:34:24;;;;;;;3.58;2.08;;;30.40;79.30;;;;;;5031434;28;20133;-69
2022/07/15 06:36:52;;;;;;;7.15;2.83;;;30.50;79.30;;;;;;5031941;28;20120;-71
2022/07/15 06:39:20;;;;;;;3.42;2.00;;;30.60;78.30;;;;;;5032392;28;20073;-67
2022/07/15 06:41:48;;;;;;;3.75;1.90;;;30.70;77.30;;;;;;5014847;28;20373;-67
2022/07/15 06:44:16;;;;;;;5.32;1.92;;;30.80;77.00;;;;;;5031539;28;20491;-67
2022/07/15 06:46:53;;;;;;;3.60;2.00;;;30.90;75.40;;;;;;5031005;28;20088;-67
2022/07/15 06:49:27;;;;;;;2.83;1.50;;;31.00;74.60;;;;;;5031043;28;20045;-74
2022/07/15 06:51:55;;;;;;;4.45;1.90;;;31.10;73.70;;;;;;5014541;28;20053;-67
2022/07/15 06:54:23;;;;;;;4.18;2.10;;;31.10;72.40;;;;;;5030733;28;20496;-69
2022/07/15 06:56:50;;;;;;;12.02;2.08;;;31.20;72.10;;;;;;5031197;28;20053;-69
2022/07/15 06:59:18;;;;;;;3.53;1.70;;;31.40;71.90;;;;;;5031056;28;20597;-67
2022/07/15 07:01:46;;;;;;;3.53;1.85;;;31.50;70.90;;;;;;5030666;28;20061;-67
2022/07/15 07:04:14;;;;;;;2.58;1.50;;;31.60;70.40;;;;;;5030600;28;20045;-67
2022/07/15 07:06:42;;;;;;;2.35;1.40;;;31.60;69.30;;;;;;5014236;28;20527;-72
2022/07/15 07:09:10;;;;;;;4.25;1.45;;;31.60;69.10;;;;;;5030752;28;20053;-67
2022/07/15 07:11:39;;;;;;;3.00;1.60;;;31.50;68.70;;;;;;5030515;28;20480;-69
2022/07/15 07:14:07;;;;;;;2.22;1.35;;;31.60;69.20;;;;;;5030948;28;20498;-69
2022/07/15 07:16:34;;;;;;;3.92;1.75;;;31.60;69.40;;;;;;5030957;28;20051;-68
2022/07/15 07:19:02;;;;;;;3.55;1.88;;;31.70;69.60;;;;;;5030655;28;20073;-68
2022/07/15 07:21:30;;;;;;;3.28;1.60;;;31.80;69.10;;;;;;5031289;28;20104;-68
2022/07/15 07:23:59;;;;;;;4.90;1.80;;;31.90;68.80;;;;;;5045092;28;20046;-68
2022/07/15 07:26:27;;;;;;;3.97;1.52;;;32.00;68.20;;;;;;5012751;28;20064;-67
2022/07/15 07:28:55;;;;;;;2.05;1.20;;;32.10;67.80;;;;;;5020507;28;20045;-68
2022/07/15 07:31:26;;;;;;;3.42;1.50;;;32.20;67.40;;;;;;5019474;28;20054;-71
2022/07/15 07:33:56;;;;;;;3.35;1.48;;;32.20;68.00;;;;;;4993958;28;20396;-68
2022/07/15 07:36:25;;;;;;;5.88;2.83;;;32.20;68.50;;;;;;5010050;28;20064;-67
2022/07/15 07:38:53;;;;;;;2.67;1.45;;;32.20;68.30;;;;;;4994002;28;20046;-67
2022/07/15 07:41:20;;;;;;;5.22;1.52;;;32.30;67.00;;;;;;4994118;28;20073;-67
2022/07/15 07:43:48;;;;;;;3.65;1.50;;;32.10;65.20;;;;;;5010706;28;20046;-68
2022/07/15 07:46:16;;;;;;;2.65;1.63;;;32.10;66.10;;;;;;4994257;28;20053;-67
2022/07/15 07:48:44;;;;;;;5.05;1.63;;;32.10;65.60;;;;;;5026503;28;20124;-66
2022/07/15 07:51:12;;;;;;;5.00;1.80;;;32.10;66.50;;;;;;4994179;28;20108;-68
2022/07/15 07:53:40;;;;;;;2.97;1.50;;;32.20;67.40;;;;;;4994609;28;20046;-68
2022/07/15 07:56:08;;;;;;;4.10;1.88;;;32.20;67.10;;;;;;5010200;28;20038;-67
2022/07/15 07:58:35;;;;;;;2.97;1.67;;;32.30;66.10;;;;;;5010010;28;20045;-67
2022/07/15 08:01:03;;;;;;;3.08;1.75;;;32.40;65.90;;;;;;4993629;28;20046;-68
2022/07/15 08:03:31;;;;;;;4.60;2.13;;;32.30;65.40;;;;;;5011318;28;20100;-67
2022/07/15 08:05:59;;;;;;;4.15;2.15;;;32.40;66.90;;;;;;5026573;28;20046;-69
2022/07/15 08:08:26;;;;;;;4.05;2.05;;;32.30;67.40;;;;;;5011215;28;20053;-67
2022/07/15 08:10:56;;;;;;;2.28;1.55;;;32.30;66.70;;;;;;5010213;28;20041;-67
2022/07/15 08:13:27;;;;;;;2.75;1.92;;;32.10;64.80;;;;;;5010086;28;20060;-68
2022/07/15 08:15:56;;;;;;;3.10;1.70;;;32.00;66.70;;;;;;5010003;28;20041;-68
2022/07/15 08:18:26;;;;;;;3.65;1.95;;;32.10;66.60;;;;;;5011760;28;20816;-67
2022/07/15 08:20:54;;;;;;;3.03;2.10;;;32.20;67.30;;;;;;4993028;28;20060;-66
2022/07/15 08:23:21;;;;;;;6.43;2.22;;;32.20;68.30;;;;;;5009466;28;20037;-69
2022/07/15 08:25:51;;;;;;;3.63;2.05;;;32.30;67.60;;;;;;5026366;28;20735;-68
2022/07/15 08:28:19;;;;;;;3.45;2.25;;;32.30;67.00;;;;;;5009510;28;20115;-67
2022/07/15 08:30:47;;;;;;;3.47;2.92;;;32.40;67.60;;;;;;5025966;28;20137;-67
2022/07/15 08:33:14;;;;;;;3.60;2.97;;;32.50;68.60;;;;;;5009659;28;20049;-73
2022/07/15 08:35:43;;;;;;;4.30;3.60;;;32.50;67.20;;;;;;4993679;28;20060;-67
2022/07/15 08:38:11;;;;;;;4.82;3.58;;;32.50;66.00;;;;;;5009603;28;20510;-68
2022/07/15 08:40:39;;;;;;;4.57;3.38;;;32.50;66.70;;;;;;5025424;28;20046;-67
2022/07/15 08:43:09;;;;;;;4.50;3.38;;;32.50;66.80;;;;;;5025610;28;20042;-69
2022/07/15 08:45:38;;;;;;;4.25;3.40;;;32.50;66.40;;;;;;5025952;28;20058;-68
2022/07/15 08:48:07;;;;;;;4.10;3.15;;;32.50;66.10;;;;;;5010337;28;20497;-71
2022/07/15 08:50:36;;;;;;;5.32;3.83;;;32.50;65.40;;;;;;5025913;28;20085;-67
2022/07/15 08:53:04;;;;;;;5.72;3.15;;;32.50;66.00;;;;;;5011004;28;20113;-68
2022/07/15 08:55:32;;;;;;;4.30;3.30;;;32.60;66.10;;;;;;5009653;28;20092;-68
2022/07/15 08:58:00;;;;;;;5.15;3.55;;;32.40;66.50;;;;;;5009515;28;20034;-67
2022/07/15 09:00:28;;;;;;;7.10;3.42;;;32.30;66.80;;;;;;4993167;28;20053;-68
2022/07/15 09:02:58;;;;;;;4.22;3.22;;;32.50;68.00;;;;;;5009298;28;20066;-68
2022/07/15 09:05:36;;;;;;;5.75;2.92;;;32.50;67.70;;;;;;5026573;28;20487;-69
2022/07/15 09:08:16;;;;;;;7.00;3.28;;;32.30;66.70;;;;;;5045138;28;20045;-68
2022/07/15 09:10:53;;;;;;;4.28;2.80;;;32.40;66.90;;;;;;5028750;28;20047;-70
2022/07/15 09:13:41;;;;;;;4.47;3.15;;;32.50;66.20;;;;;;5029904;28;20116;-69
2022/07/15 09:16:11;;;;;;;5.15;3.45;;;32.70;66.00;;;;;;5011879;28;20054;-69
2022/07/15 09:18:41;;;;;;;11.57;2.95;;;32.70;66.50;;;;;;5028390;28;20052;-68
2022/07/15 09:21:23;;;;;;;4.28;2.75;;;32.70;64.80;;;;;;5029939;28;20152;-67
2022/07/15 09:23:52;;;;;;;7.15;2.90;;;32.70;65.50;;;;;;5045046;28;20152;-68
2022/07/15 09:26:33;;;;;;;3.50;2.70;;;32.90;65.80;;;;;;5029103;28;20065;-67
2022/07/15 09:33:33;;;;;;;5.80;2.67;;;33.00;65.20;;;;;;5012295;28;20084;-68
2022/07/15 09:35:04;;;;;;;3.72;2.70;;;32.90;65.70;;;;;;5032710;28;20135;-67
2022/07/15 09:37:32;;;;;;;4.85;2.83;;;32.60;66.70;;;;;;5032280;28;20053;-68
2022/07/15 09:40:00;;;;;;;3.25;2.33;;;32.70;67.10;;;;;;5032081;28;20058;-67
2022/07/15 09:42:28;;;;;;;4.65;3.55;;;32.70;65.10;;;;;;5048455;28;20148;-67
2022/07/15 09:45:19;;;;;;;5.72;2.97;;;32.50;65.30;;;;;;5015946;28;20459;-68
2022/07/15 09:48:07;;;;;;;4.97;2.60;;;32.50;67.00;;;;;;5015512;28;20057;-71
2022/07/15 09:50:37;;;;;;;5.40;2.70;;;32.60;67.40;;;;;;5031759;28;20107;-67
2022/07/15 09:53:13;;;;;;;4.35;2.33;;;32.70;66.50;;;;;;5033236;28;20392;-67
2022/07/15 09:55:41;;;;;;;5.63;3.20;;;32.80;66.40;;;;;;5033063;28;20054;-68
2022/07/15 09:58:09;;;;;;;3.17;2.20;;;32.80;66.10;;;;;;5029698;28;20053;-68
2022/07/15 10:00:40;;;;;;;3.65;2.20;;;32.80;65.90;;;;;;5033187;28;20069;-67
2022/07/15 10:03:08;;;;;;;3.20;1.95;;;32.80;66.50;;;;;;5031611;28;20093;-66
2022/07/15 10:05:38;;;;;;;3.92;2.42;;;32.50;66.20;;;;;;5048381;28;20072;-69
2022/07/15 10:08:09;;;;;;;2.38;1.90;;;32.50;65.90;;;;;;5048344;28;20466;-67
2022/07/15 10:10:39;;;;;;;2.85;2.08;;;32.60;66.00;;;;;;5015304;28;20081;-69
2022/07/15 10:13:35;;;;;;;3.13;1.80;;;32.60;66.50;;;;;;5015317;28;20056;-67
2022/07/15 10:16:23;;;;;;;6.78;2.20;;;32.50;67.50;;;;;;5048514;28;20127;-68
2022/07/15 10:19:14;;;;;;;3.97;2.17;;;32.50;66.90;;;;;;5032724;28;20051;-67
2022/07/15 10:22:08;;;;;;;3.30;1.85;;;32.30;65.80;;;;;;5014878;28;20103;-71
2022/07/15 10:24:45;;;;;;;3.42;2.20;;;32.10;66.60;;;;;;5031822;28;20073;-67
2022/07/15 10:27:49;;;;;;;3.72;1.80;;;32.10;67.30;;;;;;5031619;28;20053;-68
2022/07/15 10:30:23;;;;;;;4.05;2.38;;;32.20;67.70;;;;;;5031546;28;20065;-67
2022/07/15 10:33:03;;;;;;;3.92;1.92;;;32.20;67.00;;;;;;5014814;28;20079;-68
2022/07/15 10:35:52;;;;;;;3.35;1.70;;;32.30;67.90;;;;;;5015237;28;20522;-68
2022/07/15 10:38:38;;;;;;;4.07;2.35;;;32.50;68.70;;;;;;5030831;28;20488;-69
2022/07/15 10:41:11;;;;;;;2.83;2.05;;;32.70;68.80;;;;;;5031245;28;20715;-68
2022/07/15 10:43:45;;;;;;;2.22;1.63;;;32.50;67.10;;;;;;5031133;28;20049;-69
2022/07/15 10:46:15;;;;;;;2.83;1.73;;;32.50;66.90;;;;;;5032127;28;20049;-68
2022/07/15 10:48:50;;;;;;;2.63;1.63;;;32.50;67.50;;;;;;5031140;28;20038;-66
2022/07/15 10:51:36;;;;;;;4.38;1.77;;;32.40;67.80;;;;;;5031260;28;20046;-68
2022/07/15 10:54:28;;;;;;;2.85;1.98;;;32.50;68.20;;;;;;5026950;28;20448;-68
2022/07/15 10:56:56;;;;;;;3.50;1.65;;;32.50;67.90;;;;;;5005984;28;20053;-69
2022/07/15 10:59:26;;;;;;;4.07;1.67;;;32.60;67.50;;;;;;5011045;28;20038;-67
2022/07/15 11:02:00;;;;;;;4.35;1.70;;;32.70;67.90;;;;;;4978441;28;20045;-68
2022/07/15 11:04:30;;;;;;;2.78;1.67;;;32.70;67.00;;;;;;5010450;28;20092;-68
2022/07/15 11:07:06;;;;;;;5.15;1.60;;;32.80;67.50;;;;;;5011254;28;20112;-68
2022/07/15 11:09:46;;;;;;;3.35;1.70;;;32.70;68.20;;;;;;5010593;28;20494;-67
2022/07/15 11:12:15;;;;;;;2.90;1.60;;;32.70;68.70;;;;;;5026558;28;20369;-69
2022/07/15 11:14:54;;;;;;;4.68;1.73;;;32.70;67.70;;;;;;5011805;28;20049;-67
2022/07/15 11:17:38;;;;;;;3.05;1.85;;;32.70;67.50;;;;;;5011580;28;20656;-67
2022/07/15 11:20:11;;;;;;;2.70;1.95;;;32.70;68.40;;;;;;5026552;28;20104;-69
2022/07/15 11:22:43;;;;;;;2.40;1.42;;;32.80;69.10;;;;;;5010182;28;20133;-68
2022/07/15 11:25:22;;;;;;;3.17;1.33;;;32.80;68.40;;;;;;5014755;28;20053;-68
2022/07/15 11:27:58;;;;;;;5.07;1.45;;;32.80;67.50;;;;;;5012496;28;20409;-67
2022/07/15 11:30:39;;;;;;;2.05;1.50;;;32.90;66.60;;;;;;5010115;28;20057;-67
2022/07/15 11:33:13;;;;;;;2.95;1.60;;;32.90;66.60;;;;;;5017611;28;20056;-67
2022/07/15 11:35:51;;;;;;;1.90;1.30;;;32.90;65.50;;;;;;5039350;28;20045;-67
2022/07/15 11:38:23;;;;;;;3.05;1.70;;;33.00;65.60;;;;;;5012692;28;20038;-66
2022/07/15 11:46:31;;;;;;;1.95;1.10;;;32.80;65.50;;;;;;5023426;28;20068;-67
2022/07/15 11:48:59;;;;;;;2.90;1.48;;;32.80;64.60;;;;;;5029012;28;20526;-67
2022/07/15 11:51:30;;;;;;;3.58;1.45;;;32.90;64.90;;;;;;5012428;28;20054;-68
2022/07/15 11:53:58;;;;;;;2.17;1.40;;;32.80;65.20;;;;;;5028686;28;20049;-67
2022/07/15 11:56:26;;;;;;;2.92;2.17;;;32.80;65.10;;;;;;5012505;28;20049;-67
2022/07/15 11:58:56;;;;;;;3.10;2.00;;;32.70;64.80;;;;;;5018547;28;20038;-68
2022/07/15 12:01:28;;;;;;;3.05;1.40;;;32.70;65.20;;;;;;5019160;28;20037;-67
2022/07/15 12:03:58;;;;;;;2.05;1.35;;;32.60;64.00;;;;;;5028645;28;20041;-69
2022/07/15 12:06:31;;;;;;;4.25;1.95;;;32.50;64.30;;;;;;5018062;28;20056;-67
2022/07/15 12:09:03;;;;;;;3.00;1.35;;;32.50;64.40;;;;;;5029958;28;20103;-71
2022/07/15 12:11:38;;;;;;;3.80;1.55;;;32.60;65.10;;;;;;5025326;28;20091;-68
2022/07/15 12:14:26;;;;;;;1.92;1.30;;;32.60;64.50;;;;;;5011510;28;20041;-69
2022/07/15 12:16:54;;;;;;;2.03;1.38;;;32.50;62.30;;;;;;5027852;28;20045;-68
2022/07/15 12:19:25;;;;;;;4.78;1.90;;;32.50;62.50;;;;;;4994616;28;20065;-67
2022/07/15 12:21:59;;;;;;;3.30;1.50;;;32.50;62.80;;;;;;5012101;28;20045;-67
2022/07/15 12:24:42;;;;;;;2.42;1.48;;;32.50;63.20;;;;;;5000828;28;20586;-66
2022/07/15 12:27:11;;;;;;;4.03;1.42;;;32.60;62.90;;;;;;5041677;28;20042;-71
2022/07/15 12:29:42;;;;;;;12.32;11.40;;;32.60;62.80;;;;;;5027640;28;20132;-67
2022/07/15 12:32:31;;;;;;;3.05;2.53;;;32.50;63.20;;;;;;5034680;28;20075;-67
2022/07/15 12:35:01;;;;;;;4.38;2.00;;;32.50;62.80;;;;;;5023691;28;20045;-68
2022/07/15 12:37:33;;;;;;;5.63;2.50;;;32.50;63.80;;;;;;5024292;28;20058;-66
2022/07/15 12:40:04;;;;;;;3.40;1.58;;;32.50;63.40;;;;;;5008750;28;20575;-69
2022/07/15 12:42:50;;;;;;;3.22;1.50;;;32.50;64.30;;;;;;5008892;28;20116;-68
2022/07/15 12:45:21;;;;;;;3.40;1.58;;;32.50;64.70;;;;;;5024364;28;20050;-68
2022/07/15 12:48:08;;;;;;;7.13;4.00;;;32.40;63.40;;;;;;5012473;28;20379;-66
2022/07/15 12:50:57;;;;;;;70.88;55.75;;;32.30;63.60;;;;;;5007545;28;20084;-66
2022/07/15 12:53:27;;;;;;;12.30;6.93;;;32.20;64.10;;;;;;5003846;28;20123;-69
2022/07/15 12:56:01;;;;;;;6.30;4.10;;;32.20;64.90;;;;;;5007292;28;20049;-68
2022/07/15 12:58:35;;;;;;;3.70;2.15;;;32.20;65.30;;;;;;5037508;28;20046;-67
2022/07/15 13:01:09;;;;;;;3.85;1.60;;;32.00;64.80;;;;;;5016496;28;20480;-68
2022/07/15 13:03:37;;;;;;;7.15;4.13;;;31.80;64.70;;;;;;5009156;28;20045;-67
2022/07/15 13:06:06;;;;;;;2.50;1.90;;;31.70;64.80;;;;;;5004543;28;20038;-68
2022/07/15 13:08:36;;;;;;;9.35;4.30;;;31.70;64.60;;;;;;5034242;28;20063;-67
2022/07/15 13:11:07;;;;;;;4.50;2.42;;;31.70;64.30;;;;;;5013352;28;20042;-69
2022/07/15 13:13:38;;;;;;;5.88;3.00;;;31.80;64.90;;;;;;5033189;28;20049;-68
2022/07/15 13:16:07;;;;;;;16.27;10.13;;;31.80;63.50;;;;;;5015730;28;20488;-67